createdAt,value
2023-09-19T00:01:24.899Z,97433.75
2023-09-19T00:03:51.450Z,97431.06
2023-09-19T00:06:18.924Z,97436.56
2023-09-19T00:08:45.302Z,97439.75
2023-09-19T00:11:11.719Z,97431.06
2023-09-19T00:13:38.416Z,97452.13
2023-09-19T00:16:12.126Z,97452.00
2023-09-19T00:18:39.260Z,97453.41
2023-09-19T00:21:05.637Z,97464.44
2023-09-19T00:23:32.151Z,97450.81
2023-09-19T00:26:01.893Z,97434.88
2023-09-19T00:28:28.552Z,97442.31
2023-09-19T00:30:55.062Z,97435.03
2023-09-19T00:33:22.113Z,97440.19
2023-09-19T00:35:49.908Z,97455.34
2023-09-19T00:38:16.293Z,97447.06
2023-09-19T00:40:45.765Z,97456.28
2023-09-19T00:43:12.256Z,97455.41
2023-09-19T00:45:39.315Z,97457.38
2023-09-19T00:48:06.019Z,97454.66
2023-09-19T00:50:32.833Z,97457.06
2023-09-19T00:52:59.500Z,97461.00
2023-09-19T00:55:27.044Z,97461.97
2023-09-19T00:57:53.616Z,97458.03
2023-09-19T01:00:20.025Z,97443.28
2023-09-19T01:02:47.224Z,97455.00
2023-09-19T01:05:14.065Z,97442.78
2023-09-19T01:07:40.919Z,97456.34
2023-09-19T01:10:09.145Z,97434.22
2023-09-19T01:12:43.059Z,97452.38
2023-09-19T01:15:37.534Z,97453.81
2023-09-19T01:18:29.895Z,97462.59
2023-09-19T01:21:12.424Z,97465.78
2023-09-19T01:24:06.758Z,97483.31
2023-09-19T01:26:51.395Z,97482.09
2023-09-19T01:29:32.977Z,97498.31
2023-09-19T01:32:04.393Z,97489.59
2023-09-19T01:34:57.490Z,97492.03
2023-09-19T01:37:23.875Z,97481.41
2023-09-19T01:39:53.381Z,97485.44
2023-09-19T01:42:34.472Z,97491.28
2023-09-19T01:45:08.559Z,97491.09
2023-09-19T01:47:37.660Z,97490.34
2023-09-19T01:50:31.039Z,97478.19
2023-09-19T01:53:13.634Z,97484.63
2023-09-19T01:55:44.705Z,97476.88
2023-09-19T01:58:18.664Z,97479.44
2023-09-19T02:00:45.550Z,97484.22
2023-09-19T02:03:12.995Z,97483.53
2023-09-19T02:05:39.521Z,97487.47
2023-09-19T02:08:06.225Z,97468.13
2023-09-19T02:10:32.640Z,97477.53
2023-09-19T02:12:59.064Z,97489.47
2023-09-19T02:15:25.432Z,97504.44
2023-09-19T02:17:51.937Z,97511.81
2023-09-19T02:20:18.430Z,97496.41
2023-09-19T02:22:44.909Z,97498.41
2023-09-19T02:25:11.437Z,97498.41
2023-09-19T02:27:37.837Z,97505.28
2023-09-19T02:30:05.714Z,97507.97
2023-09-19T02:32:32.182Z,97504.53
2023-09-19T02:34:58.847Z,97503.16
2023-09-19T02:37:25.245Z,97502.97
2023-09-19T02:39:51.678Z,97500.09
2023-09-19T02:42:18.057Z,97530.25
2023-09-19T02:44:44.426Z,97527.81
2023-09-19T02:47:10.949Z,97508.53
2023-09-19T02:49:37.480Z,97520.78
2023-09-19T02:52:04.112Z,97526.75
2023-09-19T02:54:30.498Z,97529.34
2023-09-19T02:56:56.903Z,97539.66
2023-09-19T02:59:23.262Z,97532.13
2023-09-19T03:01:49.747Z,97545.69
2023-09-19T03:04:16.222Z,97542.31
2023-09-19T03:06:42.675Z,97547.53
2023-09-19T03:09:09.034Z,97526.75
2023-09-19T03:11:35.530Z,97544.16
2023-09-19T03:14:01.914Z,97552.38
2023-09-19T03:16:28.398Z,97542.66
2023-09-19T03:18:54.846Z,97545.50
2023-09-19T03:21:21.236Z,97549.00
2023-09-19T03:23:47.633Z,97540.25
2023-09-19T03:26:14.255Z,97533.31
2023-09-19T03:28:40.643Z,97542.72
2023-09-19T03:31:07.318Z,97552.72
2023-09-19T03:33:34.048Z,97533.75
2023-09-19T03:36:02.065Z,97531.72
2023-09-19T03:38:28.722Z,97539.78
2023-09-19T03:40:55.190Z,97554.56
2023-09-19T03:43:21.628Z,97558.91
2023-09-19T03:45:48.027Z,97549.34
2023-09-19T03:48:14.406Z,97531.91
2023-09-19T03:50:40.788Z,97541.91
2023-09-19T03:53:07.261Z,97542.53
2023-09-19T03:55:34.043Z,97538.63
2023-09-19T03:58:00.452Z,97535.75
2023-09-19T04:00:26.823Z,97545.59
2023-09-19T04:02:53.575Z,97541.47
2023-09-19T04:05:20.108Z,97551.31
2023-09-19T04:07:46.612Z,97544.03
2023-09-19T04:10:13.122Z,97555.53
2023-09-19T04:12:39.488Z,97540.75
2023-09-19T04:15:06.729Z,97545.31
2023-09-19T04:17:33.361Z,97559.50
2023-09-19T04:20:00.394Z,97562.41
2023-09-19T04:22:26.999Z,97566.25
2023-09-19T04:24:53.474Z,97561.69
2023-09-19T04:27:19.903Z,97568.56
2023-09-19T04:29:46.312Z,97567.41
2023-09-19T04:32:12.687Z,97569.28
2023-09-19T04:34:39.132Z,97568.69
2023-09-19T04:37:05.521Z,97581.66
2023-09-19T04:39:31.902Z,97573.25
2023-09-19T04:41:58.270Z,97578.63
2023-09-19T05:30:27.257Z,97625.06
2023-09-19T05:32:54.513Z,97619.63
2023-09-19T05:35:21.122Z,97622.72
2023-09-19T05:37:47.496Z,97618.28
2023-09-19T05:40:13.928Z,97634.03
2023-09-19T05:42:40.302Z,97637.31
2023-09-19T05:45:07.229Z,97632.63
2023-09-19T05:47:33.896Z,97627.13
2023-09-19T05:50:00.403Z,97643.16
2023-09-19T05:52:26.924Z,97645.34
2023-09-19T05:54:53.294Z,97655.81
2023-09-19T05:57:19.658Z,97644.06
2023-09-19T05:59:46.188Z,97647.50
2023-09-19T06:02:12.721Z,97647.72
2023-09-19T06:04:39.174Z,97656.03
2023-09-19T06:07:05.558Z,97659.19
2023-09-19T06:09:31.927Z,97656.94
2023-09-19T06:11:58.422Z,97653.09
2023-09-19T06:14:24.788Z,97663.50
2023-09-19T06:16:51.476Z,97671.38
2023-09-19T06:19:17.908Z,97664.16
2023-09-19T06:21:44.336Z,97674.56
2023-09-19T06:24:10.780Z,97669.81
2023-09-19T06:26:37.200Z,97681.22
2023-09-19T06:29:03.569Z,97695.06
2023-09-19T06:31:30.049Z,97699.84
2023-09-19T06:33:56.515Z,97692.03
2023-09-19T06:36:22.959Z,97694.72
2023-09-19T06:38:49.326Z,97692.69
2023-09-19T06:41:15.752Z,97687.47
2023-09-19T06:43:42.423Z,97698.81
2023-09-19T06:46:09.020Z,97701.25
2023-09-19T06:48:35.571Z,97704.19
2023-09-19T06:51:01.975Z,97704.03
2023-09-19T06:53:28.377Z,97693.53
2023-09-19T06:55:54.798Z,97717.88
2023-09-19T06:58:21.348Z,97717.38
2023-09-19T07:00:47.738Z,97722.75
2023-09-19T07:03:15.021Z,97730.22
2023-09-19T07:05:41.498Z,97726.59
2023-09-19T07:08:08.674Z,97733.16
2023-09-19T07:10:35.129Z,97715.69
2023-09-19T07:13:02.713Z,97728.13
2023-09-19T07:15:30.193Z,97743.38
2023-09-19T07:17:56.585Z,97731.75
2023-09-19T07:20:24.400Z,97733.91
2023-09-19T07:22:50.803Z,97738.09
2023-09-19T07:25:17.446Z,97732.09
2023-09-19T07:27:44.048Z,97743.84
2023-09-19T07:30:11.039Z,97740.44
2023-09-19T07:32:37.513Z,97731.81
2023-09-19T07:35:06.390Z,97747.41
2023-09-19T07:37:33.621Z,97737.13
2023-09-19T07:40:00.876Z,97753.63
2023-09-19T07:42:27.896Z,97746.38
2023-09-19T07:44:54.284Z,97762.03
2023-09-19T07:47:23.453Z,97742.09
2023-09-19T07:49:49.874Z,97751.66
2023-09-19T07:52:16.797Z,97762.91
2023-09-19T07:54:44.178Z,97757.91
2023-09-19T07:57:12.012Z,97760.75
2023-09-19T07:59:38.853Z,97760.78
2023-09-19T08:02:05.937Z,97753.28
2023-09-19T08:04:32.492Z,97775.69
2023-09-19T08:07:00.266Z,97770.78
2023-09-19T08:09:26.965Z,97785.59
2023-09-19T08:11:53.409Z,97783.88
2023-09-19T08:14:19.846Z,97787.94
2023-09-19T08:16:46.445Z,97773.84
2023-09-19T08:19:12.914Z,97780.25
2023-09-19T08:21:39.373Z,97788.91
2023-09-19T08:24:05.905Z,97793.69
2023-09-19T08:26:32.659Z,97808.03
2023-09-19T08:28:59.089Z,97802.38
2023-09-19T08:31:25.647Z,97807.25
2023-09-19T08:33:52.089Z,97795.81
2023-09-19T08:36:18.575Z,97809.50
2023-09-19T08:38:44.952Z,97814.81
2023-09-19T08:41:11.520Z,97803.59
2023-09-19T08:43:38.096Z,97809.63
2023-09-19T08:46:12.149Z,97808.03
2023-09-19T08:48:42.241Z,97824.03
2023-09-19T08:51:12.618Z,97814.56
2023-09-19T08:53:52.685Z,97810.78
2023-09-19T08:56:19.924Z,97815.31
2023-09-19T08:58:52.599Z,97812.63
2023-09-19T09:01:19.783Z,97800.53
2023-09-19T09:03:49.457Z,97820.41
2023-09-19T09:06:16.935Z,97802.38
2023-09-19T09:08:44.284Z,97822.97
2023-09-19T09:11:12.531Z,97807.28
2023-09-19T09:13:41.124Z,97808.91
2023-09-19T09:16:08.798Z,97828.28
2023-09-19T09:18:35.329Z,97808.31
2023-09-19T09:21:01.785Z,97811.25
2023-09-19T09:23:28.642Z,97823.44
2023-09-19T09:25:56.285Z,97821.44
2023-09-19T09:28:27.601Z,97824.53
2023-09-19T09:30:54.125Z,97815.56
2023-09-19T09:33:20.794Z,97818.44
2023-09-19T09:35:54.481Z,97836.72
2023-09-19T09:38:22.050Z,97825.41
2023-09-19T09:40:52.672Z,97829.94
2023-09-19T09:43:35.822Z,97831.81
2023-09-19T09:46:16.247Z,97839.75
2023-09-19T09:48:42.658Z,97822.84
2023-09-19T09:51:09.016Z,97833.72
2023-09-19T09:53:35.469Z,97830.22
2023-09-19T09:56:08.821Z,97822.44
2023-09-19T09:58:39.371Z,97838.38
2023-09-19T10:01:05.959Z,97834.75
2023-09-19T10:03:36.272Z,97830.06
2023-09-19T10:06:02.715Z,97841.66
2023-09-19T10:08:29.103Z,97842.03
2023-09-19T10:10:55.867Z,97838.69
2023-09-19T10:13:23.073Z,97854.75
2023-09-19T10:15:50.675Z,97842.81
2023-09-19T10:18:21.213Z,97845.81
2023-09-19T10:20:47.864Z,97840.31
2023-09-19T10:23:14.306Z,97845.47
2023-09-19T10:25:42.415Z,97847.53
2023-09-19T10:28:12.662Z,97831.16
2023-09-19T10:30:42.352Z,97835.69
2023-09-19T10:33:09.204Z,97846.22
2023-09-19T10:35:39.624Z,97851.38
2023-09-19T10:38:07.048Z,97841.06
2023-09-19T10:40:36.013Z,97847.56
2023-09-19T10:43:06.274Z,97830.78
2023-09-19T10:45:34.939Z,97836.13
2023-09-19T10:48:02.424Z,97847.44
2023-09-19T10:50:31.479Z,97838.50
2023-09-19T10:53:01.398Z,97833.41
2023-09-19T10:55:29.052Z,97850.78
2023-09-19T10:57:55.521Z,97846.53
2023-09-19T11:00:22.118Z,97840.69
2023-09-19T11:03:13.816Z,97845.75
2023-09-19T11:05:41.125Z,97858.00
2023-09-19T11:08:11.270Z,97848.44
2023-09-19T11:10:50.922Z,97842.25
2023-09-19T11:13:27.101Z,97853.56
2023-09-19T11:15:59.690Z,97854.00
2023-09-19T11:18:46.164Z,97848.50
2023-09-19T11:21:27.847Z,97848.97
2023-09-19T11:24:16.198Z,97848.13
2023-09-19T11:26:43.838Z,97852.13
2023-09-19T11:29:31.047Z,97846.50
2023-09-19T11:31:58.237Z,97840.91
2023-09-19T11:34:36.893Z,97834.75
2023-09-19T11:37:12.087Z,97838.56
2023-09-19T11:39:38.921Z,97834.91
2023-09-19T11:42:43.166Z,97836.94
2023-09-19T11:45:41.957Z,97834.44
2023-09-19T11:48:09.525Z,97815.47
2023-09-19T11:50:36.656Z,97826.59
2023-09-19T11:53:03.270Z,97848.63
2023-09-19T11:55:30.398Z,97834.28
2023-09-19T11:57:57.158Z,97854.72
2023-09-19T12:00:23.905Z,97839.06
2023-09-19T12:02:52.576Z,97845.03
2023-09-19T12:05:29.494Z,97841.53
2023-09-19T12:07:55.995Z,97831.34
2023-09-19T12:10:22.470Z,97829.72
2023-09-19T12:12:49.028Z,97841.19
2023-09-19T12:15:15.714Z,97833.66
2023-09-19T12:17:42.974Z,97837.41
2023-09-19T12:20:09.813Z,97827.81
2023-09-19T12:22:45.516Z,97816.09
2023-09-19T12:25:12.275Z,97806.59
2023-09-19T12:27:45.321Z,97821.94
2023-09-19T12:30:24.648Z,97822.78
2023-09-19T12:32:53.733Z,97818.50
2023-09-19T12:35:33.840Z,97823.09
2023-09-19T12:38:00.288Z,97828.88
2023-09-19T12:40:29.009Z,97831.97
2023-09-19T12:42:56.910Z,97825.91
2023-09-19T12:45:23.460Z,97817.97
2023-09-19T12:48:27.322Z,97825.94
2023-09-19T12:51:08.160Z,97821.34
2023-09-19T12:53:43.103Z,97823.97
2023-09-19T12:56:17.718Z,97823.97
2023-09-19T12:58:54.760Z,97819.59
2023-09-19T13:01:21.540Z,97816.63
2023-09-19T13:04:21.837Z,97822.81
2023-09-19T13:06:49.868Z,97798.22
2023-09-19T13:09:20.599Z,97825.03
2023-09-19T13:11:47.465Z,97809.44
2023-09-19T13:14:23.854Z,97832.47
2023-09-19T13:17:03.540Z,97817.53
2023-09-19T13:19:49.911Z,97812.69
2023-09-19T13:22:38.117Z,97812.09
2023-09-19T13:25:06.422Z,97810.41
2023-09-19T13:27:33.362Z,97807.25
2023-09-19T13:30:00.032Z,97803.50
2023-09-19T13:32:26.958Z,97806.00
2023-09-19T13:34:53.407Z,97783.19
2023-09-19T13:37:19.777Z,97810.63
2023-09-19T13:39:46.248Z,97819.75
2023-09-19T13:42:12.628Z,97813.47
2023-09-19T13:44:39.015Z,97808.19
2023-09-19T13:47:05.643Z,97799.09
2023-09-19T13:49:32.164Z,97822.94
2023-09-19T13:51:58.557Z,97813.03
2023-09-19T13:54:24.922Z,97807.91
2023-09-19T13:56:51.305Z,97789.66
2023-09-19T13:59:17.782Z,97792.34
2023-09-19T14:01:44.251Z,97819.06
2023-09-19T14:04:10.636Z,97818.63
2023-09-19T14:06:37.093Z,97803.63
2023-09-19T14:09:03.649Z,97799.47
2023-09-19T14:11:30.045Z,97820.50
2023-09-19T14:13:57.779Z,97812.88
2023-09-19T14:16:24.398Z,97791.91
2023-09-19T14:18:50.796Z,97809.28
2023-09-19T14:21:17.167Z,97788.47
2023-09-19T14:23:43.551Z,97813.69
2023-09-19T14:26:10.085Z,97812.28
2023-09-19T14:28:36.569Z,97793.50
2023-09-19T14:31:07.885Z,97809.50
2023-09-19T14:33:34.324Z,97788.81
2023-09-19T14:36:07.370Z,97812.09
2023-09-19T14:38:34.956Z,97805.22
2023-09-19T14:41:02.561Z,97799.69
2023-09-19T14:43:30.303Z,97811.22
2023-09-19T14:46:06.672Z,97808.47
2023-09-19T14:48:33.163Z,97814.09
2023-09-19T14:51:03.883Z,97800.94
2023-09-19T14:53:30.861Z,97809.53
2023-09-19T14:55:57.555Z,97811.19
2023-09-19T14:58:24.044Z,97819.09
2023-09-19T15:00:50.435Z,97803.63
2023-09-19T15:03:17.056Z,97807.97
2023-09-19T15:05:43.740Z,97813.75
2023-09-19T15:08:10.275Z,97795.66
2023-09-19T15:10:36.749Z,97814.69
2023-09-19T15:13:03.290Z,97814.72
2023-09-19T15:15:29.691Z,97807.63
2023-09-19T15:17:56.204Z,97796.59
2023-09-19T15:20:22.665Z,97800.22
2023-09-19T15:22:49.085Z,97800.56
2023-09-19T15:25:15.552Z,97807.13
2023-09-19T15:27:41.941Z,97802.13
2023-09-19T15:30:08.826Z,97798.38
2023-09-19T15:32:35.279Z,97803.78
2023-09-19T15:35:01.713Z,97795.22
2023-09-19T15:37:28.209Z,97801.13
2023-09-19T15:39:54.567Z,97805.41
2023-09-19T15:42:20.938Z,97803.88
2023-09-19T15:44:50.384Z,97801.19
2023-09-19T15:47:16.818Z,97791.00
2023-09-19T15:49:44.229Z,97802.41
2023-09-19T15:52:10.625Z,97801.88
2023-09-19T15:54:38.777Z,97808.66
2023-09-19T15:57:05.263Z,97799.75
2023-09-19T15:59:31.672Z,97806.69
2023-09-19T16:01:58.389Z,97806.50
2023-09-19T16:04:24.827Z,97796.72
2023-09-19T16:06:51.963Z,97811.47
2023-09-19T16:09:19.456Z,97792.88
2023-09-19T16:11:45.848Z,97805.59
2023-09-19T16:14:13.072Z,97805.81
2023-09-19T16:16:41.085Z,97793.00
2023-09-19T16:19:07.530Z,97799.50
2023-09-19T16:21:34.338Z,97811.75
2023-09-19T16:24:01.065Z,97810.16
2023-09-19T16:26:28.846Z,97812.41
2023-09-19T16:28:56.690Z,97799.19
2023-09-19T16:31:23.169Z,97820.19
2023-09-19T16:33:49.798Z,97820.19
2023-09-19T16:36:20.048Z,97819.50
2023-09-19T16:38:47.932Z,97810.03
2023-09-19T16:41:14.974Z,97806.81
2023-09-19T16:43:42.009Z,97796.44
2023-09-19T16:46:09.353Z,97800.88
2023-09-19T16:48:43.829Z,97817.47
2023-09-19T16:51:18.490Z,97818.72
2023-09-19T16:53:45.301Z,97817.88
2023-09-19T16:56:13.737Z,97819.44
2023-09-19T16:58:43.023Z,97806.31
2023-09-19T17:01:18.706Z,97820.72
2023-09-19T17:03:45.456Z,97815.03
2023-09-19T17:06:14.184Z,97823.63
2023-09-19T17:08:41.173Z,97821.13
2023-09-19T17:11:12.653Z,97817.84
2023-09-19T17:13:42.336Z,97812.03
2023-09-19T17:16:10.825Z,97805.03
2023-09-19T17:18:41.234Z,97811.19
2023-09-19T17:21:09.665Z,97806.56
2023-09-19T17:23:36.058Z,97813.56
2023-09-19T17:26:03.389Z,97808.34
2023-09-19T17:28:30.892Z,97805.25
2023-09-19T17:30:58.187Z,97827.81
2023-09-19T17:33:28.734Z,97827.31
2023-09-19T17:36:14.381Z,97815.88
2023-09-19T17:38:41.960Z,97835.78
2023-09-19T17:41:08.847Z,97838.97
2023-09-19T17:43:38.717Z,97838.16
2023-09-19T17:46:12.775Z,97846.88
2023-09-19T17:48:44.701Z,97850.19
2023-09-19T17:51:14.294Z,97850.47
2023-09-19T17:53:42.171Z,97850.34
2023-09-19T17:56:10.432Z,97845.00
2023-09-19T17:58:40.692Z,97851.72
2023-09-19T18:01:14.129Z,97859.69
2023-09-19T18:03:41.536Z,97849.88
2023-09-19T18:06:08.146Z,97859.16
2023-09-19T18:08:35.095Z,97864.03
2023-09-19T18:11:02.865Z,97876.66
2023-09-19T18:13:29.476Z,97875.88
2023-09-19T18:15:58.809Z,97871.94
2023-09-19T18:18:28.776Z,97864.50
2023-09-19T18:20:55.170Z,97868.59
2023-09-19T18:23:21.597Z,97855.50
2023-09-19T18:25:48.052Z,97864.94
2023-09-19T18:28:14.422Z,97878.63
2023-09-19T18:30:40.808Z,97872.50
2023-09-19T18:33:07.265Z,97884.81
2023-09-19T18:35:33.653Z,97876.69
2023-09-19T18:38:00.076Z,97881.03
2023-09-19T18:40:26.487Z,97887.78
2023-09-19T18:42:52.871Z,97891.00
2023-09-19T18:45:30.680Z,97891.03
2023-09-19T18:48:06.218Z,97891.22
2023-09-19T18:50:32.676Z,97902.03
2023-09-19T18:52:59.101Z,97897.66
2023-09-19T18:55:25.499Z,97904.13
2023-09-19T18:57:52.789Z,97897.94
2023-09-19T19:00:19.260Z,97904.03
2023-09-19T19:02:45.679Z,97910.47
2023-09-19T19:05:12.116Z,97904.34
2023-09-19T19:07:38.929Z,97913.69
2023-09-19T19:10:06.052Z,97907.91
2023-09-19T19:12:33.217Z,97914.59
2023-09-19T19:14:59.865Z,97918.47
2023-09-19T19:17:26.339Z,97921.53
2023-09-19T19:19:52.873Z,97916.50
2023-09-19T19:22:19.289Z,97917.84
2023-09-19T19:24:45.679Z,97902.88
2023-09-19T19:27:12.038Z,97914.88
2023-09-19T19:29:38.407Z,97915.66
2023-09-19T19:32:05.024Z,97913.25
2023-09-19T19:34:31.467Z,97923.91
2023-09-19T19:36:57.869Z,97911.44
2023-09-19T19:39:24.280Z,97926.28
2023-09-19T19:41:50.716Z,97926.00
2023-09-19T19:44:17.164Z,97927.88
2023-09-19T19:46:43.621Z,97931.09
2023-09-19T19:49:10.167Z,97936.38
2023-09-19T19:51:38.627Z,97935.31
2023-09-19T19:54:05.215Z,97943.50
2023-09-19T19:56:31.937Z,97934.31
2023-09-19T19:58:58.838Z,97933.19
2023-09-19T20:01:25.684Z,97947.38
2023-09-19T20:03:52.265Z,97943.97
2023-09-19T20:06:18.710Z,97940.59
2023-09-19T20:08:45.085Z,97946.38
2023-09-19T20:11:11.568Z,97946.09
2023-09-19T20:13:38.727Z,97940.78
2023-09-19T20:16:06.487Z,97942.03
2023-09-19T20:18:33.083Z,97944.63
2023-09-19T20:21:08.585Z,97930.84
2023-09-19T20:23:34.948Z,97924.31
2023-09-19T20:26:02.117Z,97934.53
2023-09-19T20:28:28.515Z,97941.75
2023-09-19T20:30:55.033Z,97910.97
2023-09-19T20:33:24.379Z,97929.72
2023-09-19T20:35:50.759Z,97935.75
2023-09-19T20:38:17.186Z,97920.16
2023-09-19T20:40:43.631Z,97920.25
2023-09-19T20:43:10.476Z,97931.56
2023-09-19T20:45:36.841Z,97921.22
2023-09-19T20:48:03.570Z,97908.31
2023-09-19T20:50:30.141Z,97922.09
2023-09-19T20:52:56.604Z,97920.94
2023-09-19T20:55:23.204Z,97914.44
2023-09-19T20:57:49.565Z,97903.63
2023-09-19T21:00:16.124Z,97918.63
2023-09-19T21:02:42.524Z,97920.44
2023-09-19T21:05:09.478Z,97920.03
2023-09-19T21:07:35.939Z,97924.66
2023-09-19T21:10:02.327Z,97909.31
2023-09-19T21:12:28.717Z,97928.31
2023-09-19T21:14:55.197Z,97919.06
2023-09-19T21:17:21.714Z,97921.78
2023-09-19T21:19:48.345Z,97919.28
2023-09-19T21:22:14.868Z,97904.00
2023-09-19T21:24:41.244Z,97926.88
2023-09-19T21:27:07.626Z,97900.38
2023-09-19T21:29:34.870Z,97921.69
2023-09-19T21:32:01.915Z,97903.50
2023-09-19T21:34:28.321Z,97920.72
2023-09-19T21:36:54.766Z,97921.66
2023-09-19T21:39:21.319Z,97917.16
2023-09-19T21:41:47.680Z,97908.66
2023-09-19T21:44:14.070Z,97911.84
2023-09-19T21:46:40.623Z,97908.38
2023-09-19T21:49:07.140Z,97904.06
2023-09-19T21:51:33.503Z,97887.31
2023-09-19T21:53:59.981Z,97906.00
2023-09-19T21:56:26.362Z,97881.97
2023-09-19T21:58:52.795Z,97905.88
2023-09-19T22:01:19.331Z,97901.69
2023-09-19T22:03:45.832Z,97895.94
2023-09-19T22:06:12.765Z,97892.69
2023-09-19T22:08:40.035Z,97888.94
2023-09-19T22:11:07.416Z,97888.63
2023-09-19T22:13:33.886Z,97889.75
2023-09-19T22:16:01.058Z,97886.84
2023-09-19T22:18:27.842Z,97879.91
2023-09-19T22:20:55.367Z,97886.78
2023-09-19T22:23:21.877Z,97880.28
2023-09-19T22:25:48.309Z,97876.94
2023-09-19T22:28:14.700Z,97881.59
2023-09-19T22:30:41.121Z,97884.41
2023-09-19T22:33:08.889Z,97880.28
2023-09-19T22:35:35.271Z,97891.88
2023-09-19T22:38:13.896Z,97888.84
2023-09-19T22:40:41.628Z,97883.41
2023-09-19T22:43:07.980Z,97887.91
2023-09-19T22:45:34.371Z,97880.06
2023-09-19T22:48:01.739Z,97884.31
2023-09-19T22:50:28.205Z,97883.97
2023-09-19T22:52:54.608Z,97875.66
2023-09-19T22:55:24.051Z,97887.34
2023-09-19T22:57:53.354Z,97877.78
2023-09-19T23:00:19.789Z,97878.44
2023-09-19T23:02:46.291Z,97894.63
2023-09-19T23:05:12.835Z,97889.19
2023-09-19T23:07:39.307Z,97875.75
2023-09-19T23:10:06.224Z,97889.19
2023-09-19T23:12:32.588Z,97875.56
2023-09-19T23:14:58.970Z,97885.69
2023-09-19T23:17:25.378Z,97870.22
2023-09-19T23:19:51.884Z,97888.50
2023-09-19T23:22:18.455Z,97892.25
2023-09-19T23:24:45.577Z,97887.00
2023-09-19T23:27:11.963Z,97872.22
2023-09-19T23:29:38.402Z,97892.50
2023-09-19T23:32:05.254Z,97895.56
2023-09-19T23:34:31.634Z,97884.66
2023-09-19T23:36:58.039Z,97871.56
2023-09-19T23:39:24.387Z,97882.88
2023-09-19T23:41:50.759Z,97887.91
2023-09-19T23:44:17.148Z,97894.44
2023-09-19T23:46:43.541Z,97900.56
2023-09-19T23:49:10.235Z,97893.78
2023-09-19T23:51:36.596Z,97896.06
2023-09-19T23:54:06.455Z,97899.06
2023-09-19T23:56:32.826Z,97899.66
2023-09-19T23:58:59.250Z,97904.69
